»·PEaware :: UPS19 KLAS-KSEA

UPS19 :: KLAS-KSEA

FLIGHT INFORMATION

Flight Status: Arrived
Operator:
United Parcel Service
More flights by this operator :: More flights under this callsign
Pilot: Tim M. (868)
Aircraft: Boeing 747-8
(B748)
More flights by this aircraft type
Origin: KLAS McCarran Intl
United States
Destination: KSEA Seattle-Tacoma Intl
United States
More flights between these airports :: More routes between these airports
Route: SHEAD1 OAL DCT LOMIA DCT LKV HAWKZ7
File this flight plan on PilotEdge
Remarks:
Altitude:
(Current/Filed)
36,000ft
Speed:
(Current/Filed)
490kts
Departed: 19-May-20 07:54 PM
Arrived: 19-May-20 09:58 PM
Distance/Time
Traveled:
753nm/2:04
Distance/Time
To Go:
Arrived

Flight Plot

Page will automatically refresh every two minutes.

Flight plan parsing failed; only flown route is shown


Map Options




Map Legend


Flown Route
Filed Route
Departure Airport
Arrival Airport
Navaid (VOR, NDB)
Fix

Horizontal Profiles

Position Reports

Time Latitude Longitude Heading Altitude Ground
Speed
19-May-20 19:31 36.081854 -115.125618 90 2194ft 0kts
19-May-20 19:32 36.081854 -115.125618 90 2194ft 0kts
19-May-20 19:33 36.081854 -115.125618 90 2194ft 0kts
19-May-20 19:34 36.081854 -115.125618 90 2194ft 0kts
19-May-20 19:35 36.081854 -115.125618 90 2194ft 0kts
19-May-20 19:36 36.081854 -115.125618 90 2194ft 0kts
19-May-20 19:37 36.081854 -115.125618 90 2194ft 0kts
19-May-20 19:38 36.081854 -115.125618 90 2194ft 0kts
19-May-20 19:39 36.081854 -115.125618 90 2194ft 0kts
19-May-20 19:40 36.081854 -115.125618 90 2194ft 0kts
19-May-20 19:41 36.081854 -115.125618 90 2194ft 0kts
19-May-20 19:42 36.081854 -115.125618 90 2194ft 0kts
19-May-20 19:43 36.081854 -115.125618 90 2194ft 0kts
19-May-20 19:44 36.081852 -115.126194 90 2194ft 2kts
19-May-20 19:45 36.082135 -115.126394 179 2194ft 2kts
19-May-20 19:46 36.082349 -115.126394 180 2194ft 0kts
19-May-20 19:47 36.082349 -115.126394 180 2194ft 0kts
19-May-20 19:48 36.082236 -115.126394 180 2194ft 6kts
19-May-20 19:49 36.080148 -115.126397 180 2194ft 6kts
19-May-20 19:50 36.078760 -115.126401 179 2194ft 9kts
19-May-20 19:51 36.078261 -115.122914 99 2194ft 10kts
19-May-20 19:52 36.076446 -115.121663 258 2194ft 8kts
19-May-20 19:53 36.076393 -115.123636 269 2194ft 46kts
19-May-20 19:54 36.076429 -115.169853 268 3050ft 169kts
19-May-20 19:55 36.076309 -115.229762 267 4490ft 192kts
19-May-20 19:56 36.031810 -115.275513 198 5053ft 265kts
19-May-20 19:57 35.961740 -115.312569 219 7448ft 278kts
19-May-20 19:58 35.905928 -115.380745 225 10412ft 282kts
19-May-20 19:59 35.885979 -115.482381 270 11496ft 358kts
19-May-20 20:00 35.889795 -115.611643 269 14225ft 383kts
19-May-20 20:01 35.892319 -115.744918 269 17464ft 395kts
19-May-20 20:02 35.894410 -115.882160 269 20048ft 409kts
19-May-20 20:03 35.933879 -116.014011 307 22493ft 442kts
19-May-20 20:04 36.025367 -116.121284 313 24688ft 465kts
19-May-20 20:05 36.122347 -116.232608 311 26544ft 484kts
19-May-20 20:06 36.221225 -116.346483 310 28847ft 485kts
19-May-20 20:07 36.321100 -116.462449 309 29918ft 502kts
19-May-20 20:08 36.423344 -116.581931 309 31502ft 503kts
19-May-20 20:09 36.525174 -116.701205 310 33018ft 501kts
19-May-20 20:10 36.637894 -116.805851 323 34281ft 511kts
19-May-20 20:11 36.759167 -116.896585 323 35452ft 508kts
19-May-20 20:12 36.879429 -116.988256 323 36010ft 506kts
19-May-20 20:13 36.999613 -117.080021 323 36016ft 506kts
19-May-20 20:14 37.119569 -117.171990 323 36023ft 504kts
19-May-20 20:15 37.238892 -117.264292 323 36029ft 504kts
19-May-20 20:16 37.360502 -117.351674 329 36034ft 505kts
19-May-20 20:17 37.486199 -117.432264 329 36051ft 505kts
19-May-20 20:18 37.610733 -117.513341 329 36054ft 504kts
19-May-20 20:19 37.735004 -117.594046 329 36048ft 502kts
19-May-20 20:20 37.859376 -117.675545 329 36050ft 501kts
19-May-20 20:21 37.982854 -117.757045 328 36049ft 500kts
19-May-20 20:22 38.091286 -117.863453 316 36055ft 487kts
19-May-20 20:23 38.193580 -117.975680 317 36054ft 486kts
19-May-20 20:24 38.296669 -118.087415 317 36055ft 485kts
19-May-20 20:25 38.399336 -118.198595 317 36067ft 484kts
19-May-20 20:26 38.501957 -118.310523 317 36064ft 484kts
19-May-20 20:27 38.603964 -118.422255 317 36057ft 481kts
19-May-20 20:28 38.705469 -118.533876 318 36057ft 480kts
19-May-20 20:29 38.806577 -118.645492 318 36050ft 479kts
19-May-20 20:30 38.907218 -118.757026 318 36053ft 477kts
19-May-20 20:31 39.007984 -118.868774 318 36048ft 477kts
19-May-20 20:32 39.107951 -118.980540 318 36046ft 476kts
19-May-20 20:33 39.208446 -119.090653 328 36031ft 474kts
19-May-20 20:34 39.331184 -119.152981 341 36043ft 476kts
19-May-20 20:35 39.457918 -119.203879 341 36041ft 476kts
19-May-20 20:36 39.583936 -119.255387 341 36051ft 474kts
19-May-20 20:37 39.709943 -119.307057 341 36043ft 473kts
19-May-20 20:38 39.835284 -119.358835 341 36040ft 472kts
19-May-20 20:39 39.960423 -119.410757 341 36058ft 471kts
19-May-20 20:41 40.084920 -119.462616 341 36058ft 471kts
19-May-20 20:42 40.209993 -119.514917 341 36059ft 471kts
19-May-20 20:43 40.334670 -119.567255 341 36057ft 471kts
19-May-20 20:44 40.459731 -119.619958 341 36050ft 472kts
19-May-20 20:45 40.584897 -119.672913 341 36049ft 473kts
19-May-20 20:46 40.710475 -119.726253 341 36051ft 474kts
19-May-20 20:47 40.836349 -119.779931 341 36063ft 476kts
19-May-20 20:48 40.962869 -119.834101 341 36070ft 478kts
19-May-20 20:49 41.089361 -119.888478 341 36074ft 479kts
19-May-20 20:50 41.216184 -119.943219 341 36075ft 480kts
19-May-20 20:51 41.343134 -119.998240 341 36075ft 480kts
19-May-20 20:52 41.468711 -120.052888 341 36079ft 472kts
19-May-20 20:53 41.593918 -120.107597 341 36079ft 474kts
19-May-20 20:54 41.719888 -120.162866 341 36078ft 476kts
19-May-20 20:55 41.845771 -120.218327 341 36078ft 477kts
19-May-20 20:56 41.971863 -120.274110 341 36079ft 477kts
19-May-20 20:57 42.098076 -120.330182 341 36079ft 477kts
19-May-20 20:57 42.203222 -120.376980 341 36080ft 476kts
19-May-20 20:59 42.349642 -120.442533 341 36080ft 474kts
19-May-20 21:00 42.474325 -120.498727 341 36079ft 472kts
19-May-20 21:00 42.575345 -120.555893 335 36078ft 471kts
19-May-20 21:01 42.694858 -120.629465 336 36081ft 469kts
19-May-20 21:03 42.833279 -120.713896 336 36083ft 467kts
19-May-20 21:03 42.932382 -120.774186 336 36084ft 467kts
19-May-20 21:04 43.050759 -120.846778 336 36088ft 466kts
19-May-20 21:05 43.168926 -120.919593 336 36099ft 465kts
19-May-20 21:06 43.286818 -120.992556 336 36106ft 464kts
19-May-20 21:07 43.404618 -121.065774 336 36112ft 463kts
19-May-20 21:08 43.521451 -121.138487 336 36115ft 461kts
19-May-20 21:09 43.638123 -121.211657 336 36115ft 459kts
19-May-20 21:10 43.754385 -121.285008 336 36123ft 458kts
19-May-20 21:11 43.869668 -121.357992 336 36145ft 453kts
19-May-20 21:12 43.983908 -121.430806 336 36132ft 452kts
19-May-20 21:13 44.098459 -121.504083 337 36106ft 453kts
19-May-20 21:14 44.212956 -121.576824 337 36126ft 450kts
19-May-20 21:15 44.326645 -121.649994 336 36116ft 448kts
19-May-20 21:16 44.440887 -121.723696 336 36097ft 451kts
19-May-20 21:17 44.554804 -121.797658 336 36135ft 449kts
19-May-20 21:18 44.669152 -121.872101 336 36082ft 453kts
19-May-20 21:19 44.783656 -121.947103 336 36111ft 455kts
19-May-20 21:20 44.898608 -122.022672 336 36115ft 451kts
19-May-20 21:21 45.011475 -122.097120 336 36118ft 448kts
19-May-20 21:22 45.123237 -122.171048 336 35297ft 436kts
19-May-20 21:23 45.229996 -122.242347 337 33621ft 411kts
19-May-20 21:24 45.330576 -122.309682 337 31976ft 389kts
19-May-20 21:25 45.426459 -122.374168 337 30360ft 373kts
19-May-20 21:26 45.519945 -122.436704 337 28594ft 372kts
19-May-20 21:27 45.613806 -122.500293 337 26717ft 375kts
19-May-20 21:28 45.708770 -122.564918 337 24872ft 380kts
19-May-20 21:29 45.809000 -122.608295 352 24070ft 373kts
19-May-20 21:30 45.912121 -122.632134 352 23194ft 375kts
19-May-20 21:31 46.014358 -122.657510 351 22617ft 372kts
19-May-20 21:32 46.116897 -122.682568 353 21965ft 372kts
19-May-20 21:33 46.217966 -122.701898 353 20868ft 364kts
19-May-20 21:34 46.317785 -122.721522 355 19808ft 357kts
19-May-20 21:35 46.416403 -122.726123 359 18771ft 352kts
19-May-20 21:36 46.513917 -122.729185 359 17641ft 346kts
19-May-20 21:37 46.609921 -122.732615 359 16626ft 343kts
19-May-20 21:38 46.704748 -122.736058 359 15630ft 338kts
19-May-20 21:39 46.794035 -122.722012 25 14660ft 322kts
19-May-20 21:40 46.863745 -122.642665 38 13343ft 316kts
19-May-20 21:41 46.933487 -122.568728 28 12496ft 295kts
19-May-20 21:42 47.009211 -122.530587 15 11735ft 286kts
19-May-20 21:43 47.082590 -122.499841 10 11019ft 283kts
19-May-20 21:44 47.160429 -122.485438 5 10286ft 279kts
19-May-20 21:45 47.233485 -122.473408 4 9486ft 268kts
19-May-20 21:46 47.306472 -122.462338 4 8580ft 262kts
19-May-20 21:47 47.377596 -122.454281 358 7917ft 249kts
19-May-20 21:48 47.446755 -122.455517 358 6685ft 247kts
19-May-20 21:49 47.514459 -122.455371 358 5899ft 237kts
19-May-20 21:50 47.578881 -122.456090 358 4392ft 234kts
19-May-20 21:51 47.619043 -122.408121 87 3066ft 224kts
19-May-20 21:52 47.610392 -122.318075 120 3003ft 219kts
19-May-20 21:53 47.559858 -122.305311 184 2337ft 172kts
19-May-20 21:54 47.516159 -122.306886 181 1385ft 148kts
19-May-20 21:55 47.474098 -122.307724 183 668ft 148kts
19-May-20 21:56 47.444406 -122.307960 179 446ft 41kts
19-May-20 21:57 47.439415 -122.306413 10 446ft 10kts
19-May-20 21:58 47.442185 -122.306345 359 446ft 13kts
19-May-20 21:59 47.447340 -122.306315 359 446ft 18kts
19-May-20 22:00 47.451979 -122.306273 359 446ft 15kts
19-May-20 22:01 47.458642 -122.306224 359 446ft 22kts
19-May-20 22:02 47.461868 -122.305187 100 446ft 0kts
19-May-20 22:03 47.461235 -122.303687 180 446ft 1kts
19-May-20 22:04 47.461022 -122.303685 179 446ft 0kts
19-May-20 22:05 47.461022 -122.303685 179 446ft 0kts
19-May-20 22:06 47.461022 -122.303685 179 446ft 0kts
19-May-20 22:07 47.461022 -122.303685 179 446ft 0kts

Navigation Log

Ident Type
Flight plan parsing failed, navigation log unavailable